Norfolk, Virginia
Traffic Map
Current Weather Conditions
Norfolk, Virginia
Clear
Clear
79°
Feels Like: 84°
Wind Chill: 79° Ceiling: Unl
Heat Index: 84° Visibility: 10mi
Dew Point: 79° Wind: 6mph
Humidity: 100% Direction: 190° (S)
Pressure: 29.94in Gusts: 0mph
Raw Report DataKORF 190251Z 19005KT 10SM CLR 26/26 A2994 RMK AO2 SLP138 T02610261 53004
Traffic Incident Summary
Active as of:
Severity:
Category:
InformationThere was an issue retrieving the traffic information for this location. Please try a different location or try again shortly.
Advertisements